createdAt,value
2023-04-18T00:01:01.900Z,4.92
2023-04-18T00:06:03.909Z,4.90
2023-04-18T00:11:05.770Z,4.89
2023-04-18T00:16:08.743Z,4.89
2023-04-18T00:21:10.683Z,4.92
2023-04-18T00:26:12.752Z,4.98
2023-04-18T00:31:14.916Z,4.92
2023-04-18T00:36:16.741Z,4.90
2023-04-18T00:41:21.886Z,4.92
2023-04-18T00:46:23.808Z,5.01
2023-04-18T00:51:26.348Z,5.02
2023-04-18T00:56:29.462Z,5.01
2023-04-18T01:01:33.815Z,4.94
2023-04-18T01:06:36.815Z,4.90
2023-04-18T01:11:38.694Z,4.94
2023-04-18T01:16:40.522Z,4.93
2023-04-18T01:21:43.993Z,4.91
2023-04-18T01:26:48.247Z,4.96
2023-04-18T01:31:50.235Z,4.91
2023-04-18T01:36:52.121Z,4.89
2023-04-18T01:41:53.930Z,4.87
2023-04-18T01:46:55.890Z,4.90
2023-04-18T01:51:57.837Z,4.93
2023-04-18T01:56:59.630Z,5.02
2023-04-18T02:02:02.616Z,4.97
2023-04-18T02:07:04.791Z,4.93
2023-04-18T02:12:06.874Z,4.93
2023-04-18T02:17:08.822Z,4.97
2023-04-18T02:22:11.251Z,4.95
2023-04-18T02:27:13.121Z,5.00
2023-04-18T02:32:15.077Z,5.03
2023-04-18T02:37:19.442Z,5.06
2023-04-18T02:42:21.310Z,5.05
2023-04-18T02:47:23.131Z,5.10
2023-04-18T02:52:25.709Z,5.16
2023-04-18T02:57:27.587Z,5.12
2023-04-18T03:02:47.957Z,5.16
2023-04-18T03:08:03.721Z,5.21
2023-04-18T03:13:06.255Z,5.18
2023-04-18T03:18:08.714Z,5.20
2023-04-18T03:23:13.507Z,5.22
2023-04-18T03:28:15.549Z,5.27
2023-04-18T03:33:17.451Z,5.27
2023-04-18T03:38:21.448Z,5.29
2023-04-18T03:43:24.118Z,5.31
2023-04-18T03:48:27.127Z,5.34
2023-04-18T03:53:30.097Z,5.40
2023-04-18T03:58:32.066Z,5.41
2023-04-18T04:03:34.578Z,5.40
2023-04-18T04:08:36.685Z,5.40
2023-04-18T04:13:38.785Z,5.44
2023-04-18T04:18:42.374Z,5.39
2023-04-18T04:23:44.350Z,5.41
2023-04-18T04:28:54.471Z,5.41
2023-04-18T04:33:59.836Z,5.44
2023-04-18T04:39:04.258Z,5.43
2023-04-18T04:44:31.566Z,5.53
2023-04-18T04:49:34.326Z,5.42
2023-04-18T04:54:36.396Z,5.39
2023-04-18T04:59:40.703Z,5.35
2023-04-18T05:04:42.936Z,5.38
2023-04-18T05:09:44.905Z,5.38
2023-04-18T05:14:46.704Z,5.34
2023-04-18T05:19:48.551Z,5.30
2023-04-18T05:24:50.370Z,5.22
2023-04-18T05:29:52.789Z,5.16
2023-04-18T05:34:54.918Z,5.17
2023-04-18T05:39:58.699Z,5.22
2023-04-18T05:45:02.056Z,5.08
2023-04-18T05:50:04.182Z,5.01
2023-04-18T05:55:06.641Z,5.04
2023-04-18T06:00:11.815Z,4.99
2023-04-18T06:05:16.702Z,4.90
2023-04-18T06:10:18.764Z,4.90
2023-04-18T06:15:20.568Z,4.94
2023-04-18T06:20:23.270Z,4.81
2023-04-18T06:25:25.964Z,4.77
2023-04-18T06:30:27.807Z,4.86
2023-04-18T06:35:31.394Z,4.75
2023-04-18T06:40:33.337Z,4.70
2023-04-18T06:45:35.755Z,4.70
2023-04-18T06:50:37.736Z,4.70
2023-04-18T06:55:40.835Z,4.66
2023-04-18T07:00:43.425Z,4.62
2023-04-18T07:05:45.518Z,4.64
2023-04-18T07:10:47.363Z,4.62
2023-04-18T07:15:49.192Z,4.59
2023-04-18T07:20:51.024Z,4.62
2023-04-18T07:25:52.902Z,4.70
2023-04-18T07:30:56.998Z,4.78
2023-04-18T07:35:59.202Z,4.85
2023-04-18T07:41:02.143Z,4.94
2023-04-18T07:46:04.162Z,4.96
2023-04-18T07:51:06.048Z,4.84
2023-04-18T07:56:07.871Z,4.82
2023-04-18T08:01:13.564Z,4.85
2023-04-18T08:06:16.844Z,4.89
2023-04-18T08:11:18.680Z,4.90
2023-04-18T08:16:20.792Z,5.56
2023-04-18T08:21:22.589Z,5.65
2023-04-18T08:26:24.572Z,5.70
2023-04-18T08:31:26.670Z,5.65
2023-04-18T08:36:28.790Z,5.59
2023-04-18T08:41:34.319Z,5.55
2023-04-18T08:46:37.248Z,5.40
2023-04-18T08:51:40.323Z,5.30
2023-04-18T08:56:42.331Z,5.35
2023-04-18T09:01:58.812Z,5.46
2023-04-18T09:07:01.445Z,5.31
2023-04-18T09:12:08.134Z,5.22
2023-04-18T09:17:13.243Z,5.30
2023-04-18T09:22:16.343Z,5.25
2023-04-18T09:27:18.822Z,5.30
2023-04-18T09:32:27.001Z,5.56
2023-04-18T09:37:29.409Z,5.49
2023-04-18T09:42:36.677Z,5.60
2023-04-18T09:47:39.073Z,5.63
2023-04-18T09:52:42.793Z,5.49
2023-04-18T09:57:46.634Z,5.37
2023-04-18T10:03:08.823Z,5.29
2023-04-18T10:08:12.757Z,5.36
2023-04-18T10:13:15.203Z,5.70
2023-04-18T10:18:17.286Z,5.54
2023-04-18T10:23:34.969Z,5.74
2023-04-18T10:28:57.522Z,5.67
2023-04-18T10:39:25.614Z,5.47
2023-04-18T10:44:27.674Z,5.64
2023-04-18T10:49:32.893Z,5.58
2023-04-18T10:54:55.180Z,5.81
2023-04-18T10:59:57.915Z,5.85
2023-04-18T11:05:02.220Z,5.96
2023-04-18T11:10:06.274Z,5.92
2023-04-18T11:15:14.527Z,5.93
2023-04-18T11:20:17.146Z,6.13
2023-04-18T11:25:25.244Z,6.16
2023-04-18T11:30:28.027Z,6.08
2023-04-18T11:35:30.039Z,6.27
2023-04-18T11:40:31.965Z,6.04
2023-04-18T11:45:33.794Z,5.91
2023-04-18T11:50:37.248Z,5.89
2023-04-18T11:55:39.213Z,6.22
2023-04-18T12:00:43.844Z,6.26
2023-04-18T12:05:45.810Z,6.28
2023-04-18T12:10:51.675Z,6.38
2023-04-18T12:15:54.554Z,6.34
2023-04-18T12:20:58.604Z,6.34
2023-04-18T12:26:07.703Z,6.18
2023-04-18T12:31:09.703Z,6.23
2023-04-18T12:36:11.773Z,6.26
2023-04-18T12:41:13.580Z,6.22
2023-04-18T12:46:15.436Z,6.24
2023-04-18T12:51:17.301Z,6.18
2023-04-18T12:56:19.297Z,6.08
2023-04-18T13:01:21.202Z,6.09
2023-04-18T13:06:24.558Z,6.11
2023-04-18T13:11:28.755Z,6.13
2023-04-18T13:16:31.263Z,6.06
2023-04-18T13:21:33.099Z,6.00
2023-04-18T13:26:36.156Z,5.99
2023-04-18T13:31:38.005Z,5.99
2023-04-18T13:36:39.898Z,6.05
2023-04-18T13:41:42.361Z,6.07
2023-04-18T13:46:44.277Z,6.01
2023-04-18T13:51:46.671Z,6.10
2023-04-18T13:56:48.471Z,6.14
2023-04-18T14:01:51.403Z,6.11
2023-04-18T14:06:53.313Z,6.12
2023-04-18T14:11:55.482Z,6.15
2023-04-18T14:16:57.376Z,6.16
2023-04-18T14:21:59.167Z,6.08
2023-04-18T14:27:01.854Z,6.18
2023-04-18T14:32:03.860Z,6.29
2023-04-18T14:37:06.310Z,6.32
2023-04-18T14:42:08.141Z,6.29
2023-04-18T14:47:10.037Z,6.33
2023-04-18T14:52:11.893Z,6.29
2023-04-18T14:57:13.732Z,6.33
2023-04-18T15:02:15.669Z,6.36
2023-04-18T15:07:18.185Z,6.36
2023-04-18T15:12:19.990Z,6.33
2023-04-18T15:17:21.878Z,6.39
2023-04-18T15:22:23.699Z,6.38
2023-04-18T15:27:25.643Z,6.40
2023-04-18T15:32:27.532Z,6.43
2023-04-18T15:37:29.330Z,6.42
2023-04-18T15:42:31.131Z,6.52
2023-04-18T15:47:34.038Z,6.47
2023-04-18T15:52:36.614Z,6.46
2023-04-18T15:57:38.811Z,6.47
2023-04-18T16:02:40.831Z,6.48
2023-04-18T16:07:42.977Z,6.47
2023-04-18T16:12:45.135Z,6.52
2023-04-18T16:17:46.981Z,6.50
2023-04-18T16:22:48.965Z,6.51
2023-04-18T16:27:50.965Z,6.45
2023-04-18T16:32:53.101Z,6.50
2023-04-18T16:37:55.031Z,6.55
2023-04-18T16:42:57.244Z,6.55
2023-04-18T16:47:59.184Z,6.57
2023-04-18T16:53:01.724Z,6.56
2023-04-18T16:58:03.503Z,6.55
2023-04-18T17:03:07.286Z,6.59
2023-04-18T17:08:09.127Z,6.55
2023-04-18T17:13:10.861Z,6.53
2023-04-18T17:18:12.517Z,6.51
2023-04-18T17:23:14.245Z,6.55
2023-04-18T17:28:16.353Z,6.53
2023-04-18T17:33:18.028Z,6.53
2023-04-18T17:38:19.646Z,6.56
2023-04-18T17:43:21.485Z,6.54
2023-04-18T17:48:23.109Z,6.52
2023-04-18T17:53:24.741Z,6.52
2023-04-18T17:58:27.111Z,6.55
2023-04-18T18:03:28.939Z,6.56
2023-04-18T18:08:30.780Z,6.58
2023-04-18T18:13:32.804Z,6.58
2023-04-18T18:18:34.962Z,6.59
2023-04-18T18:23:36.580Z,6.60
2023-04-18T18:28:38.288Z,6.60
2023-04-18T18:33:39.974Z,6.62
2023-04-18T18:38:41.857Z,6.64
2023-04-18T18:43:43.471Z,6.65
2023-04-18T18:48:45.190Z,6.67
2023-04-18T18:53:46.912Z,6.69
2023-04-18T18:58:48.542Z,6.71
2023-04-18T19:03:50.532Z,6.73
2023-04-18T19:08:52.258Z,6.74
2023-04-18T19:13:54.054Z,6.78
2023-04-18T19:18:55.742Z,6.87
2023-04-18T19:23:57.351Z,6.92
2023-04-18T19:28:59.043Z,6.88
2023-04-18T19:34:01.092Z,6.85
2023-04-18T19:39:02.756Z,6.87
2023-04-18T19:44:04.634Z,6.86
2023-04-18T19:49:06.273Z,6.86
2023-04-18T19:54:08.012Z,6.88
2023-04-18T19:59:09.766Z,6.89
2023-04-18T20:04:11.547Z,6.91
2023-04-18T20:09:16.868Z,6.91
2023-04-18T20:14:18.706Z,6.95
2023-04-18T20:19:20.319Z,6.97
2023-04-18T20:24:22.040Z,6.99
2023-04-18T20:29:23.713Z,6.99
2023-04-18T20:34:25.373Z,6.99
2023-04-18T20:39:28.025Z,7.03
2023-04-18T20:44:31.107Z,7.01
2023-04-18T20:49:35.229Z,6.99
2023-04-18T20:54:36.838Z,7.02
2023-04-18T20:59:38.501Z,7.03
2023-04-18T21:04:40.696Z,7.06
2023-04-18T21:09:42.408Z,7.00
2023-04-18T21:14:44.033Z,7.02
2023-04-18T21:19:46.466Z,7.06
2023-04-18T21:24:48.103Z,7.08
2023-04-18T21:29:49.731Z,7.13
2023-04-18T21:34:51.427Z,7.08
2023-04-18T21:39:52.992Z,7.07
2023-04-18T21:44:54.901Z,7.11
2023-04-18T21:49:56.610Z,7.06
2023-04-18T21:54:59.210Z,7.08
2023-04-18T22:00:00.833Z,7.13
2023-04-18T22:05:02.885Z,7.16
2023-04-18T22:10:05.853Z,7.09
2023-04-18T22:15:08.059Z,7.08
2023-04-18T22:20:11.205Z,7.02
2023-04-18T22:25:12.844Z,7.11
2023-04-18T22:30:14.716Z,7.06
2023-04-18T22:35:17.580Z,7.10
2023-04-18T22:40:19.324Z,7.07
2023-04-18T22:45:21.074Z,7.04
2023-04-18T22:50:22.780Z,7.01
2023-04-18T22:55:24.463Z,7.04
2023-04-18T23:00:26.185Z,7.00
2023-04-18T23:05:28.545Z,7.00
2023-04-18T23:10:30.362Z,7.01
2023-04-18T23:15:32.253Z,6.93
2023-04-18T23:20:34.297Z,6.94
2023-04-18T23:25:36.217Z,6.93
2023-04-18T23:30:38.153Z,6.92
2023-04-18T23:35:39.978Z,6.98
2023-04-18T23:40:41.792Z,6.99
2023-04-18T23:45:43.626Z,6.93
2023-04-18T23:50:50.309Z,6.93
2023-04-18T23:55:53.709Z,6.97
